Time,TemperatureF,DewpointF,PressureIn,WindDirection,WindDirectionDegrees,WindSpeedMPH,WindSpeedGustMPH,Humidity,HourlyPrecipIn,Conditions,Clouds,dailyrainin,SoftwareType,DateUTC
2013-01-02 00:02:00,13.0,12.0,27.05,West,276,8.0,11.0,93,0.00,,,-99.99,,2013-01-02 06:02:00,
2013-01-02 00:07:00,13.0,12.0,27.05,West,265,9.0,11.0,93,0.00,,,-99.99,,2013-01-02 06:07:00,
2013-01-02 00:12:00,13.0,12.0,27.05,WNW,283,9.0,11.0,93,0.00,,,-99.99,,2013-01-02 06:12:00,
2013-01-02 00:17:00,13.0,12.0,27.05,West,276,8.0,11.0,93,0.00,,,-99.99,,2013-01-02 06:17:00,
2013-01-02 00:22:00,13.0,12.0,27.05,WNW,283,9.0,12.0,93,0.00,,,-99.99,,2013-01-02 06:22:00,
2013-01-02 00:27:00,14.0,12.0,27.05,WNW,282,8.0,11.0,93,0.00,,,-99.99,,2013-01-02 06:27:00,
2013-01-02 00:32:00,14.0,12.0,27.05,West,281,10.0,12.0,93,0.00,,,-99.99,,2013-01-02 06:32:00,
2013-01-02 00:37:00,15.0,14.0,27.05,WNW,300,10.0,12.0,93,0.00,,,-99.99,,2013-01-02 06:37:00,
2013-01-02 00:42:00,15.0,14.0,27.05,WNW,303,10.0,11.0,93,0.00,,,-99.99,,2013-01-02 06:42:00,
2013-01-02 00:47:00,15.0,14.0,27.05,WNW,296,10.0,11.0,93,0.00,,,-99.99,,2013-01-02 06:47:00,
2013-01-02 00:52:00,15.0,14.0,27.05,WNW,302,10.0,11.0,92,0.00,,,-99.99,,2013-01-02 06:52:00,
2013-01-02 00:57:00,14.0,12.0,27.04,NW,307,11.0,12.0,92,0.00,,,-99.99,,2013-01-02 06:57:00,
2013-01-02 01:02:00,14.0,12.0,27.04,WNW,299,10.0,11.0,93,0.00,,,-99.99,,2013-01-02 07:02:00,
2013-01-02 01:07:00,15.0,14.0,27.04,WNW,300,11.0,13.0,92,0.00,,,-99.99,,2013-01-02 07:07:00,
2013-01-02 01:12:00,15.0,14.0,27.04,WNW,302,11.0,14.0,92,0.00,,,-99.99,,2013-01-02 07:12:00,
2013-01-02 01:17:00,15.0,14.0,27.04,WNW,296,11.0,14.0,92,0.00,,,-99.99,,2013-01-02 07:17:00,
2013-01-02 01:22:00,16.0,14.0,27.04,NW,305,12.0,13.0,92,0.00,,,-99.99,,2013-01-02 07:22:00,
2013-01-02 01:27:00,16.0,14.0,27.04,WNW,292,12.0,14.0,92,0.00,,,-99.99,,2013-01-02 07:27:00,
2013-01-02 01:32:00,16.0,14.0,27.03,WNW,300,13.0,17.0,92,0.00,,,-99.99,,2013-01-02 07:32:00,
2013-01-02 01:37:00,17.0,16.0,27.03,WNW,299,13.0,16.0,92,0.00,,,-99.99,,2013-01-02 07:37:00,
2013-01-02 01:42:00,17.0,16.0,27.03,WNW,299,12.0,14.0,92,0.00,,,-99.99,,2013-01-02 07:42:00,
2013-01-02 01:52:00,17.0,16.0,27.03,WNW,299,11.0,14.0,92,0.00,,,-99.99,,2013-01-02 07:52:00,
2013-01-02 01:57:00,17.0,14.0,27.03,NW,305,12.0,13.0,91,0.00,,,-99.99,,2013-01-02 07:57:00,
2013-01-02 02:07:00,17.0,14.0,27.02,WNW,303,12.0,13.0,91,0.00,,,-99.99,,2013-01-02 08:07:00,
2013-01-02 02:12:00,17.0,16.0,27.02,WNW,299,11.0,13.0,92,0.00,,,-99.99,,2013-01-02 08:12:00,
2013-01-02 02:17:00,17.0,16.0,27.03,WNW,299,12.0,14.0,92,0.00,,,-99.99,,2013-01-02 08:17:00,
2013-01-02 02:22:00,18.0,16.0,27.03,WNW,295,11.0,13.0,92,0.00,,,-99.99,,2013-01-02 08:22:00,
2013-01-02 02:27:00,18.0,16.0,27.02,WNW,282,10.0,13.0,92,0.00,,,-99.99,,2013-01-02 08:27:00,
2013-01-02 02:32:00,19.0,18.0,27.03,WNW,293,10.0,12.0,92,0.00,,,-99.99,,2013-01-02 08:32:00,
2013-01-02 02:37:00,19.0,18.0,27.03,WNW,299,10.0,13.0,92,0.00,,,-99.99,,2013-01-02 08:37:00,
2013-01-02 02:42:00,20.0,18.0,27.03,NW,309,11.0,12.0,92,0.00,,,-99.99,,2013-01-02 08:42:00,
2013-01-02 02:47:00,20.0,18.0,27.03,NW,310,11.0,15.0,92,0.00,,,-99.99,,2013-01-02 08:47:00,
2013-01-02 02:52:00,21.0,19.0,27.03,NW,310,12.0,14.0,92,0.00,,,-99.99,,2013-01-02 08:52:00,
2013-01-02 02:57:00,22.0,19.0,27.03,WNW,302,13.0,15.0,92,0.00,,,-99.99,,2013-01-02 08:57:00,
2013-01-02 03:07:00,24.0,21.0,27.04,NW,306,14.0,17.0,92,0.00,,,-99.99,,2013-01-02 09:07:00,
2013-01-02 03:12:00,25.0,23.0,27.04,NW,306,14.0,16.0,92,0.00,,,-99.99,,2013-01-02 09:12:00,
2013-01-02 03:17:00,25.0,23.0,27.04,NW,305,15.0,18.0,92,0.00,,,-99.99,,2013-01-02 09:17:00,
2013-01-02 03:22:00,25.0,23.0,27.04,WNW,303,14.0,17.0,92,0.00,,,-99.99,,2013-01-02 09:22:00,
2013-01-02 03:27:00,25.0,23.0,27.03,NW,313,14.0,17.0,92,0.00,,,-99.99,,2013-01-02 09:27:00,
2013-01-02 03:37:00,25.0,23.0,27.03,NW,310,15.0,17.0,92,0.00,,,-99.99,,2013-01-02 09:37:00,
2013-01-02 03:42:00,25.0,23.0,27.03,NW,313,15.0,19.0,92,0.00,,,-99.99,,2013-01-02 09:42:00,
2013-01-02 03:47:00,25.0,23.0,27.03,NW,319,15.0,18.0,92,0.00,,,-99.99,,2013-01-02 09:47:00,
2013-01-02 03:52:00,26.0,25.0,27.03,NW,305,16.0,19.0,93,0.00,,,-99.99,,2013-01-02 09:52:00,
2013-01-02 03:57:00,26.0,25.0,27.03,NW,314,15.0,17.0,93,0.00,,,-99.99,,2013-01-02 09:57:00,
2013-01-02 04:02:00,26.0,25.0,27.03,NW,305,15.0,18.0,93,0.00,,,-99.99,,2013-01-02 10:02:00,
2013-01-02 04:07:00,27.0,25.0,27.03,WNW,295,15.0,19.0,93,0.00,,,-99.99,,2013-01-02 10:07:00,
2013-01-02 04:12:00,27.0,25.0,27.03,NW,307,18.0,21.0,93,0.00,,,-99.99,,2013-01-02 10:12:00,
2013-01-02 04:17:00,28.0,27.0,27.03,NW,309,16.0,20.0,93,0.00,,,-99.99,,2013-01-02 10:17:00,
2013-01-02 04:22:00,28.0,27.0,27.03,NW,312,19.0,22.0,93,0.00,,,-99.99,,2013-01-02 10:22:00,
2013-01-02 04:27:00,28.0,27.0,27.03,NW,309,18.0,21.0,93,0.00,,,-99.99,,2013-01-02 10:27:00,
2013-01-02 04:32:00,28.0,27.0,27.03,WNW,302,17.0,21.0,93,0.00,,,-99.99,,2013-01-02 10:32:00,
2013-01-02 04:37:00,28.0,27.0,27.02,NW,319,20.0,25.0,93,0.00,,,-99.99,,2013-01-02 10:37:00,
2013-01-02 04:42:00,29.0,27.0,27.02,NW,310,20.0,24.0,94,0.00,,,-99.99,,2013-01-02 10:42:00,
2013-01-02 04:47:00,29.0,27.0,27.02,NW,312,20.0,23.0,94,0.00,,,-99.99,,2013-01-02 10:47:00,
2013-01-02 04:52:00,29.0,27.0,27.03,NW,313,18.0,20.0,94,0.00,,,-99.99,,2013-01-02 10:52:00,
2013-01-02 04:57:00,29.0,27.0,27.02,NW,321,19.0,22.0,94,0.00,,,-99.99,,2013-01-02 10:57:00,
2013-01-02 05:02:00,28.0,27.0,27.02,NW,314,17.0,19.0,94,0.00,,,-99.99,,2013-01-02 11:02:00,
2013-01-02 05:07:00,29.0,27.0,27.02,NW,323,17.0,21.0,94,0.00,,,-99.99,,2013-01-02 11:07:00,
2013-01-02 05:12:00,28.0,27.0,27.02,NW,321,17.0,21.0,94,0.00,,,-99.99,,2013-01-02 11:12:00,
2013-01-02 05:17:00,28.0,27.0,27.02,NW,313,17.0,21.0,95,0.00,,,-99.99,,2013-01-02 11:17:00,
2013-01-02 05:22:00,28.0,27.0,27.03,NW,319,17.0,19.0,95,0.00,,,-99.99,,2013-01-02 11:22:00,
2013-01-02 05:27:00,28.0,27.0,27.02,NW,317,16.0,19.0,95,0.00,,,-99.99,,2013-01-02 11:27:00,
2013-01-02 05:32:00,28.0,27.0,27.03,NW,321,17.0,20.0,95,0.00,,,-99.99,,2013-01-02 11:32:00,
2013-01-02 05:37:00,28.0,27.0,27.03,NW,319,17.0,19.0,95,0.00,,,-99.99,,2013-01-02 11:37:00,
2013-01-02 05:42:00,28.0,27.0,27.03,NW,316,18.0,20.0,96,0.00,,,-99.99,,2013-01-02 11:42:00,
2013-01-02 05:47:00,28.0,27.0,27.03,NW,320,16.0,19.0,96,0.00,,,-99.99,,2013-01-02 11:47:00,
2013-01-02 05:52:00,28.0,27.0,27.03,NW,316,16.0,19.0,96,0.00,,,-99.99,,2013-01-02 11:52:00,
2013-01-02 05:57:00,27.0,27.0,27.03,NW,319,15.0,18.0,96,0.00,,,-99.99,,2013-01-02 11:57:00,
2013-01-02 06:02:00,27.0,27.0,27.04,NW,326,15.0,18.0,96,0.00,,,-99.99,,2013-01-02 12:02:00,
2013-01-02 06:07:00,27.0,27.0,27.04,NW,313,14.0,16.0,96,0.00,,,-99.99,,2013-01-02 12:07:00,
2013-01-02 06:12:00,27.0,27.0,27.04,NW,320,13.0,15.0,96,0.00,,,-99.99,,2013-01-02 12:12:00,
2013-01-02 06:17:00,27.0,27.0,27.04,NW,314,14.0,16.0,96,0.00,,,-99.99,,2013-01-02 12:17:00,
2013-01-02 06:22:00,28.0,27.0,27.04,NW,314,14.0,15.0,96,0.00,,,-99.99,,2013-01-02 12:22:00,
2013-01-02 06:27:00,28.0,27.0,27.04,NW,317,13.0,16.0,96,0.00,,,-99.99,,2013-01-02 12:27:00,
2013-01-02 06:32:00,28.0,27.0,27.04,NW,324,12.0,14.0,97,0.00,,,-99.99,,2013-01-02 12:32:00,
2013-01-02 06:37:00,28.0,27.0,27.04,NW,320,13.0,16.0,97,0.00,,,-99.99,,2013-01-02 12:37:00,
2013-01-02 06:42:00,28.0,27.0,27.04,NW,316,12.0,15.0,97,0.00,,,-99.99,,2013-01-02 12:42:00,
2013-01-02 06:47:00,28.0,27.0,27.04,NW,317,14.0,16.0,97,0.00,,,-99.99,,2013-01-02 12:47:00,
2013-01-02 06:52:00,28.0,27.0,27.04,NW,316,14.0,17.0,97,0.00,,,-99.99,,2013-01-02 12:52:00,
2013-01-02 06:57:00,28.0,27.0,27.04,NW,323,15.0,17.0,97,0.00,,,-99.99,,2013-01-02 12:57:00,
2013-01-02 07:02:00,28.0,27.0,27.04,NW,321,15.0,17.0,97,0.00,,,-99.99,,2013-01-02 13:02:00,
2013-01-02 07:07:00,28.0,27.0,27.04,NW,319,15.0,18.0,97,0.00,,,-99.99,,2013-01-02 13:07:00,
2013-01-02 07:12:00,28.0,27.0,27.04,NNW,327,16.0,19.0,97,0.00,,,-99.99,,2013-01-02 13:12:00,
2013-01-02 07:17:00,28.0,28.0,27.04,NW,320,17.0,20.0,98,0.00,,,-99.99,,2013-01-02 13:17:00,
2013-01-02 07:22:00,28.0,28.0,27.04,NW,321,17.0,21.0,98,0.00,,,-99.99,,2013-01-02 13:22:00,
2013-01-02 07:27:00,28.0,28.0,27.04,NNW,330,18.0,21.0,98,0.00,,,-99.99,,2013-01-02 13:27:00,
2013-01-02 07:32:00,28.0,28.0,27.04,NNW,327,18.0,23.0,98,0.00,,,-99.99,,2013-01-02 13:32:00,
2013-01-02 07:37:00,28.0,28.0,27.04,NW,317,21.0,23.0,98,0.00,,,-99.99,,2013-01-02 13:37:00,
2013-01-02 07:42:00,28.0,28.0,27.05,NNW,329,20.0,22.0,98,0.00,,,-99.99,,2013-01-02 13:42:00,
2013-01-02 07:47:00,28.0,28.0,27.05,NNW,327,20.0,23.0,98,0.00,,,-99.99,,2013-01-02 13:47:00,
2013-01-02 07:52:00,28.0,28.0,27.05,NW,323,20.0,23.0,98,0.00,,,-99.99,,2013-01-02 13:52:00,
2013-01-02 07:57:00,28.0,28.0,27.06,NNW,330,19.0,23.0,98,0.00,,,-99.99,,2013-01-02 13:57:00,
2013-01-02 08:02:00,28.0,28.0,27.06,NNW,330,19.0,23.0,98,0.00,,,-99.99,,2013-01-02 14:02:00,
2013-01-02 08:07:00,28.0,28.0,27.06,NW,320,18.0,21.0,98,0.00,,,-99.99,,2013-01-02 14:07:00,
2013-01-02 08:12:00,28.0,28.0,27.06,NNW,331,17.0,20.0,99,0.00,,,-99.99,,2013-01-02 14:12:00,
2013-01-02 08:17:00,28.0,28.0,27.06,NW,323,18.0,21.0,99,0.00,,,-99.99,,2013-01-02 14:17:00,
2013-01-02 08:22:00,28.0,28.0,27.06,WNW,303,18.0,20.0,99,0.00,,,-99.99,,2013-01-02 14:22:00,
2013-01-02 08:27:00,28.0,28.0,27.07,NW,320,17.0,20.0,99,0.00,,,-99.99,,2013-01-02 14:27:00,
2013-01-02 08:32:00,28.0,28.0,27.07,NW,324,17.0,22.0,99,0.00,,,-99.99,,2013-01-02 14:32:00,
2013-01-02 08:37:00,28.0,28.0,27.07,NNW,329,18.0,21.0,99,0.00,,,-99.99,,2013-01-02 14:37:00,
2013-01-02 08:42:00,28.0,28.0,27.07,NW,309,17.0,21.0,99,0.00,,,-99.99,,2013-01-02 14:42:00,
2013-01-02 08:47:00,28.0,28.0,27.07,NW,324,16.0,20.0,99,0.00,,,-99.99,,2013-01-02 14:47:00,
2013-01-02 08:52:00,29.0,28.0,27.07,NW,321,18.0,20.0,99,0.00,,,-99.99,,2013-01-02 14:52:00,
2013-01-02 08:57:00,29.0,28.0,27.08,NW,313,19.0,22.0,99,0.00,,,-99.99,,2013-01-02 14:57:00,
2013-01-02 09:02:00,29.0,28.0,27.08,NW,320,17.0,18.0,99,0.00,,,-99.99,,2013-01-02 15:02:00,
2013-01-02 09:07:00,29.0,28.0,27.08,NW,309,16.0,20.0,99,0.00,,,-99.99,,2013-01-02 15:07:00,
2013-01-02 09:12:00,29.0,28.0,27.08,NW,313,16.0,20.0,99,0.00,,,-99.99,,2013-01-02 15:12:00,
2013-01-02 09:17:00,29.0,28.0,27.08,NW,309,16.0,19.0,99,0.00,,,-99.99,,2013-01-02 15:17:00,
2013-01-02 09:22:00,29.0,28.0,27.08,NW,310,14.0,17.0,99,0.00,,,-99.99,,2013-01-02 15:22:00,
2013-01-02 09:27:00,29.0,28.0,27.09,NW,313,14.0,17.0,99,0.00,,,-99.99,,2013-01-02 15:27:00,
2013-01-02 09:32:00,29.0,28.0,27.09,NW,320,16.0,19.0,99,0.00,,,-99.99,,2013-01-02 15:32:00,
2013-01-02 09:37:00,29.0,28.0,27.09,NW,305,17.0,20.0,99,0.00,,,-99.99,,2013-01-02 15:37:00,
2013-01-02 09:42:00,29.0,28.0,27.09,WNW,300,15.0,19.0,99,0.00,,,-99.99,,2013-01-02 15:42:00,
2013-01-02 09:47:00,29.0,28.0,27.09,NW,320,16.0,18.0,99,0.00,,,-99.99,,2013-01-02 15:47:00,
2013-01-02 09:52:00,29.0,28.0,27.09,NW,310,14.0,17.0,99,0.00,,,-99.99,,2013-01-02 15:52:00,
2013-01-02 09:57:00,29.0,28.0,27.09,NW,305,14.0,16.0,99,0.00,,,-99.99,,2013-01-02 15:57:00,
2013-01-02 10:02:00,29.0,28.0,27.09,NW,316,14.0,16.0,99,0.00,,,-99.99,,2013-01-02 16:02:00,
2013-01-02 10:07:00,29.0,28.0,27.09,NW,309,14.0,16.0,99,0.00,,,-99.99,,2013-01-02 16:07:00,
2013-01-02 10:12:00,30.0,30.0,27.09,NW,312,14.0,16.0,98,0.00,,,-99.99,,2013-01-02 16:12:00,
2013-01-02 10:17:00,30.0,30.0,27.09,NW,317,12.0,14.0,98,0.00,,,-99.99,,2013-01-02 16:17:00,
2013-01-02 10:22:00,30.0,30.0,27.09,WNW,299,15.0,17.0,98,0.00,,,-99.99,,2013-01-02 16:22:00,
2013-01-02 10:27:00,30.0,30.0,27.09,NW,306,14.0,18.0,98,0.00,,,-99.99,,2013-01-02 16:27:00,
2013-01-02 10:32:00,30.0,30.0,27.09,NW,309,15.0,17.0,98,0.00,,,-99.99,,2013-01-02 16:32:00,
2013-01-02 10:37:00,30.0,30.0,27.10,NW,310,14.0,15.0,98,0.00,,,-99.99,,2013-01-02 16:37:00,
2013-01-02 10:42:00,30.0,28.0,27.09,WNW,303,14.0,16.0,97,0.00,,,-99.99,,2013-01-02 16:42:00,
2013-01-02 10:47:00,30.0,28.0,27.09,NW,320,16.0,19.0,97,0.00,,,-99.99,,2013-01-02 16:47:00,
2013-01-02 10:52:00,30.0,28.0,27.09,NW,324,16.0,19.0,97,0.00,,,-99.99,,2013-01-02 16:52:00,
2013-01-02 10:57:00,30.0,28.0,27.09,WNW,303,14.0,17.0,97,0.00,,,-99.99,,2013-01-02 16:57:00,
2013-01-02 11:02:00,30.0,28.0,27.09,NNW,327,15.0,17.0,96,0.00,,,-99.99,,2013-01-02 17:02:00,
2013-01-02 11:07:00,30.0,28.0,27.09,WNW,300,17.0,20.0,96,0.00,,,-99.99,,2013-01-02 17:07:00,
2013-01-02 11:12:00,30.0,28.0,27.09,NW,312,16.0,18.0,96,0.00,,,-99.99,,2013-01-02 17:12:00,
2013-01-02 11:17:00,30.0,28.0,27.09,NW,324,16.0,20.0,95,0.00,,,-99.99,,2013-01-02 17:17:00,
2013-01-02 11:22:00,30.0,28.0,27.09,NW,317,17.0,19.0,95,0.00,,,-99.99,,2013-01-02 17:22:00,
2013-01-02 11:27:00,30.0,28.0,27.09,NW,309,17.0,20.0,95,0.00,,,-99.99,,2013-01-02 17:27:00,
2013-01-02 11:32:00,30.0,28.0,27.09,NW,323,19.0,23.0,94,0.00,,,-99.99,,2013-01-02 17:32:00,
2013-01-02 11:37:00,31.0,30.0,27.09,NW,306,19.0,21.0,94,0.00,,,-99.99,,2013-01-02 17:37:00,
2013-01-02 11:42:00,31.0,30.0,27.09,NW,307,19.0,20.0,94,0.00,,,-99.99,,2013-01-02 17:42:00,
2013-01-02 11:47:00,31.0,30.0,27.08,NW,321,19.0,22.0,94,0.00,,,-99.99,,2013-01-02 17:47:00,
2013-01-02 11:52:00,31.0,28.0,27.08,NW,305,20.0,23.0,93,0.00,,,-99.99,,2013-01-02 17:52:00,
2013-01-02 11:57:00,31.0,28.0,27.08,WNW,299,18.0,21.0,93,0.00,,,-99.99,,2013-01-02 17:57:00,
2013-01-02 12:02:00,31.0,28.0,27.08,NW,313,20.0,23.0,93,0.00,,,-99.99,,2013-01-02 18:02:00,
2013-01-02 12:07:00,31.0,28.0,27.08,NW,319,19.0,23.0,93,0.00,,,-99.99,,2013-01-02 18:07:00,
2013-01-02 12:12:00,31.0,28.0,27.07,NW,326,20.0,23.0,92,0.00,,,-99.99,,2013-01-02 18:12:00,
2013-01-02 12:17:00,31.0,28.0,27.07,NW,319,19.0,22.0,92,0.00,,,-99.99,,2013-01-02 18:17:00,
2013-01-02 12:22:00,31.0,28.0,27.07,NW,320,22.0,24.0,92,0.00,,,-99.99,,2013-01-02 18:22:00,
2013-01-02 12:27:00,31.0,28.0,27.07,WNW,292,20.0,24.0,91,0.00,,,-99.99,,2013-01-02 18:27:00,
2013-01-02 12:32:00,31.0,28.0,27.07,WNW,299,20.0,25.0,92,0.00,,,-99.99,,2013-01-02 18:32:00,
2013-01-02 12:37:00,31.0,28.0,27.07,WNW,303,20.0,23.0,92,0.00,,,-99.99,,2013-01-02 18:37:00,
2013-01-02 12:42:00,31.0,28.0,27.07,NW,316,19.0,22.0,91,0.00,,,-99.99,,2013-01-02 18:42:00,
2013-01-02 12:47:00,31.0,28.0,27.06,NW,314,22.0,25.0,91,0.00,,,-99.99,,2013-01-02 18:47:00,
2013-01-02 12:52:00,31.0,28.0,27.06,NW,316,22.0,25.0,91,0.00,,,-99.99,,2013-01-02 18:52:00,
2013-01-02 12:57:00,31.0,28.0,27.06,NW,321,23.0,25.0,91,0.00,,,-99.99,,2013-01-02 18:57:00,
2013-01-02 13:02:00,31.0,28.0,27.06,NW,323,21.0,25.0,91,0.00,,,-99.99,,2013-01-02 19:02:00,
2013-01-02 13:07:00,31.0,28.0,27.06,NW,314,20.0,22.0,91,0.00,,,-99.99,,2013-01-02 19:07:00,
2013-01-02 13:12:00,31.0,28.0,27.06,NW,323,19.0,22.0,91,0.00,,,-99.99,,2013-01-02 19:12:00,
2013-01-02 13:17:00,31.0,28.0,27.06,NW,319,23.0,27.0,91,0.00,,,-99.99,,2013-01-02 19:17:00,
2013-01-02 13:22:00,32.0,30.0,27.06,NW,319,20.0,23.0,91,0.00,,,-99.99,,2013-01-02 19:22:00,
2013-01-02 13:27:00,32.0,30.0,27.06,NW,317,20.0,24.0,90,0.00,,,-99.99,,2013-01-02 19:27:00,
2013-01-02 13:32:00,32.0,30.0,27.06,NNW,333,19.0,22.0,91,0.00,,,-99.99,,2013-01-02 19:32:00,
2013-01-02 13:37:00,32.0,30.0,27.06,NW,310,17.0,20.0,91,0.00,,,-99.99,,2013-01-02 19:37:00,
2013-01-02 13:42:00,32.0,30.0,27.05,NW,317,20.0,23.0,91,0.00,,,-99.99,,2013-01-02 19:42:00,
2013-01-02 13:47:00,32.0,30.0,27.05,NW,323,19.0,22.0,91,0.00,,,-99.99,,2013-01-02 19:47:00,
2013-01-02 13:52:00,32.0,30.0,27.05,NW,326,18.0,21.0,91,0.00,,,-99.99,,2013-01-02 19:52:00,
2013-01-02 13:57:00,31.0,28.0,27.05,NNW,334,22.0,24.0,91,0.00,,,-99.99,,2013-01-02 19:57:00,
2013-01-02 14:02:00,32.0,30.0,27.05,NW,326,19.0,22.0,91,0.00,,,-99.99,,2013-01-02 20:02:00,
2013-01-02 14:07:00,32.0,30.0,27.05,NW,326,22.0,24.0,91,0.00,,,-99.99,,2013-01-02 20:07:00,
2013-01-02 14:12:00,31.0,28.0,27.05,NNW,329,20.0,24.0,91,0.00,,,-99.99,,2013-01-02 20:12:00,
2013-01-02 14:17:00,31.0,28.0,27.05,WNW,303,21.0,25.0,91,0.00,,,-99.99,,2013-01-02 20:17:00,
2013-01-02 14:22:00,31.0,28.0,27.05,WNW,300,21.0,23.0,92,0.00,,,-99.99,,2013-01-02 20:22:00,
2013-01-02 14:27:00,31.0,28.0,27.05,NW,324,21.0,24.0,91,0.00,,,-99.99,,2013-01-02 20:27:00,
2013-01-02 14:32:00,31.0,28.0,27.05,NNW,333,19.0,22.0,91,0.00,,,-99.99,,2013-01-02 20:32:00,
2013-01-02 14:37:00,32.0,30.0,27.05,NW,326,18.0,20.0,91,0.00,,,-99.99,,2013-01-02 20:37:00,
2013-01-02 14:42:00,32.0,30.0,27.05,NNW,334,19.0,23.0,91,0.00,,,-99.99,,2013-01-02 20:42:00,
2013-01-02 14:47:00,32.0,30.0,27.05,NNW,337,17.0,21.0,91,0.00,,,-99.99,,2013-01-02 20:47:00,
2013-01-02 14:52:00,31.0,28.0,27.05,NNW,334,16.0,20.0,91,0.00,,,-99.99,,2013-01-02 20:52:00,
2013-01-02 14:57:00,32.0,30.0,27.05,NW,321,16.0,19.0,91,0.00,,,-99.99,,2013-01-02 20:57:00,
2013-01-02 15:02:00,32.0,30.0,27.04,NNW,341,15.0,17.0,91,0.00,,,-99.99,,2013-01-02 21:02:00,
2013-01-02 15:07:00,32.0,30.0,27.05,NNW,337,15.0,16.0,91,0.00,,,-99.99,,2013-01-02 21:07:00,
2013-01-02 15:12:00,32.0,30.0,27.05,NNW,338,14.0,16.0,91,0.00,,,-99.99,,2013-01-02 21:12:00,
2013-01-02 15:17:00,32.0,30.0,27.05,NNW,345,14.0,16.0,91,0.00,,,-99.99,,2013-01-02 21:17:00,
2013-01-02 15:22:00,32.0,30.0,27.06,NNW,343,15.0,17.0,90,0.00,,,-99.99,,2013-01-02 21:22:00,
2013-01-02 15:27:00,32.0,30.0,27.06,NNW,340,14.0,16.0,90,0.00,,,-99.99,,2013-01-02 21:27:00,
2013-01-02 15:32:00,32.0,30.0,27.06,NW,323,15.0,17.0,90,0.00,,,-99.99,,2013-01-02 21:32:00,
2013-01-02 15:37:00,32.0,30.0,27.06,NNW,330,14.0,17.0,90,0.00,,,-99.99,,2013-01-02 21:37:00,
2013-01-02 15:42:00,32.0,30.0,27.06,NNW,334,15.0,17.0,90,0.00,,,-99.99,,2013-01-02 21:42:00,
2013-01-02 15:47:00,32.0,30.0,27.07,NNW,329,15.0,18.0,90,0.00,,,-99.99,,2013-01-02 21:47:00,
2013-01-02 15:52:00,32.0,30.0,27.07,NNW,336,15.0,18.0,90,0.00,,,-99.99,,2013-01-02 21:52:00,
2013-01-02 15:57:00,32.0,30.0,27.07,NNW,327,14.0,16.0,90,0.00,,,-99.99,,2013-01-02 21:57:00,
2013-01-02 16:02:00,32.0,30.0,27.07,NNW,333,14.0,16.0,90,0.00,,,-99.99,,2013-01-02 22:02:00,
2013-01-02 16:07:00,32.0,30.0,27.07,NNW,327,14.0,17.0,90,0.00,,,-99.99,,2013-01-02 22:07:00,
2013-01-02 16:12:00,31.0,28.0,27.07,NNW,327,13.0,14.0,90,0.00,,,-99.99,,2013-01-02 22:12:00,
2013-01-02 16:17:00,31.0,28.0,27.07,NW,310,14.0,17.0,90,0.00,,,-99.99,,2013-01-02 22:17:00,
2013-01-02 16:22:00,31.0,28.0,27.08,NNW,327,13.0,15.0,90,0.00,,,-99.99,,2013-01-02 22:22:00,
2013-01-02 16:27:00,31.0,28.0,27.08,NNW,329,11.0,12.0,90,0.00,,,-99.99,,2013-01-02 22:27:00,
2013-01-02 16:32:00,31.0,28.0,27.08,NW,324,11.0,13.0,90,0.00,,,-99.99,,2013-01-02 22:32:00,
2013-01-02 16:37:00,30.0,27.0,27.08,NW,319,12.0,14.0,90,0.00,,,-99.99,,2013-01-02 22:37:00,
2013-01-02 16:42:00,31.0,28.0,27.08,NW,320,12.0,14.0,90,0.00,,,-99.99,,2013-01-02 22:42:00,
2013-01-02 16:47:00,31.0,28.0,27.08,NW,317,13.0,15.0,90,0.00,,,-99.99,,2013-01-02 22:47:00,
2013-01-02 16:52:00,30.0,27.0,27.08,NNW,333,13.0,15.0,90,0.00,,,-99.99,,2013-01-02 22:52:00,
2013-01-02 16:57:00,30.0,27.0,27.08,NW,323,13.0,14.0,90,0.00,,,-99.99,,2013-01-02 22:57:00,
2013-01-02 17:02:00,30.0,27.0,27.09,NNW,329,12.0,13.0,90,0.00,,,-99.99,,2013-01-02 23:02:00,
2013-01-02 17:07:00,30.0,28.0,27.09,NNW,327,11.0,12.0,91,0.00,,,-99.99,,2013-01-02 23:07:00,
2013-01-02 17:12:00,30.0,28.0,27.09,NW,321,12.0,13.0,91,0.00,,,-99.99,,2013-01-02 23:12:00,
2013-01-02 17:17:00,29.0,27.0,27.09,NW,323,11.0,13.0,91,0.00,,,-99.99,,2013-01-02 23:17:00,
2013-01-02 17:22:00,29.0,27.0,27.09,NW,319,10.0,12.0,91,0.00,,,-99.99,,2013-01-02 23:22:00,
2013-01-02 17:32:00,28.0,27.0,27.10,NW,309,9.0,10.0,91,0.00,,,-99.99,,2013-01-02 23:32:00,
2013-01-02 17:37:00,27.0,25.0,27.10,WNW,300,10.0,11.0,91,0.00,,,-99.99,,2013-01-02 23:37:00,
2013-01-02 17:42:00,27.0,25.0,27.10,WNW,302,11.0,14.0,91,0.00,,,-99.99,,2013-01-02 23:42:00,
2013-01-02 17:52:00,27.0,25.0,27.10,NW,312,14.0,16.0,91,0.00,,,-99.99,,2013-01-02 23:52:00,
2013-01-02 17:57:00,27.0,25.0,27.11,WNW,302,14.0,15.0,91,0.00,,,-99.99,,2013-01-02 23:57:00,
2013-01-02 18:02:00,26.0,23.0,27.11,NW,316,13.0,15.0,91,0.00,,,-99.99,,2013-01-03 00:02:00,
2013-01-02 18:07:00,26.0,23.0,27.11,NW,307,13.0,15.0,91,0.00,,,-99.99,,2013-01-03 00:07:00,
2013-01-02 18:12:00,26.0,23.0,27.11,NW,319,13.0,14.0,91,0.00,,,-99.99,,2013-01-03 00:12:00,
2013-01-02 18:17:00,25.0,23.0,27.11,NW,316,12.0,13.0,91,0.00,,,-99.99,,2013-01-03 00:17:00,
2013-01-02 18:22:00,25.0,23.0,27.11,NW,317,12.0,13.0,91,0.00,,,-99.99,,2013-01-03 00:22:00,
2013-01-02 18:27:00,24.0,21.0,27.11,NW,316,11.0,12.0,91,0.00,,,-99.99,,2013-01-03 00:27:00,
2013-01-02 18:32:00,24.0,21.0,27.11,NW,313,11.0,12.0,91,0.00,,,-99.99,,2013-01-03 00:32:00,
2013-01-02 18:42:00,24.0,21.0,27.12,NW,314,11.0,12.0,91,0.00,,,-99.99,,2013-01-03 00:42:00,
2013-01-02 18:47:00,23.0,21.0,27.12,NW,309,11.0,11.0,91,0.00,,,-99.99,,2013-01-03 00:47:00,
2013-01-02 18:52:00,23.0,21.0,27.12,NW,305,10.0,11.0,91,0.00,,,-99.99,,2013-01-03 00:52:00,
2013-01-02 18:57:00,22.0,19.0,27.12,WNW,303,9.0,10.0,92,0.00,,,-99.99,,2013-01-03 00:57:00,
2013-01-02 19:02:00,22.0,19.0,27.12,NW,307,9.0,11.0,92,0.00,,,-99.99,,2013-01-03 01:02:00,
2013-01-02 19:07:00,23.0,21.0,27.12,WNW,302,10.0,11.0,92,0.00,,,-99.99,,2013-01-03 01:07:00,
2013-01-02 19:12:00,22.0,19.0,27.12,WNW,303,11.0,12.0,92,0.00,,,-99.99,,2013-01-03 01:12:00,
2013-01-02 19:17:00,22.0,19.0,27.12,WNW,302,11.0,12.0,92,0.00,,,-99.99,,2013-01-03 01:17:00,
2013-01-02 19:22:00,21.0,19.0,27.12,WNW,298,11.0,12.0,92,0.00,,,-99.99,,2013-01-03 01:22:00,
2013-01-02 19:27:00,21.0,19.0,27.13,WNW,302,11.0,12.0,92,0.00,,,-99.99,,2013-01-03 01:27:00,
2013-01-02 19:32:00,21.0,19.0,27.13,NW,305,12.0,12.0,92,0.00,,,-99.99,,2013-01-03 01:32:00,
2013-01-02 19:37:00,20.0,18.0,27.14,NW,309,12.0,13.0,92,0.00,,,-99.99,,2013-01-03 01:37:00,
2013-01-02 19:42:00,20.0,18.0,27.14,NW,310,12.0,13.0,92,0.00,,,-99.99,,2013-01-03 01:42:00,
2013-01-02 19:52:00,20.0,18.0,27.14,NW,310,11.0,12.0,92,0.00,,,-99.99,,2013-01-03 01:52:00,
2013-01-02 19:57:00,20.0,18.0,27.14,WNW,293,10.0,11.0,93,0.00,,,-99.99,,2013-01-03 01:57:00,
2013-01-02 20:02:00,20.0,18.0,27.14,WNW,302,11.0,12.0,93,0.00,,,-99.99,,2013-01-03 02:02:00,
2013-01-02 20:07:00,19.0,18.0,27.14,WNW,299,12.0,12.0,92,0.00,,,-99.99,,2013-01-03 02:07:00,
2013-01-02 20:12:00,19.0,18.0,27.14,NW,305,11.0,12.0,93,0.00,,,-99.99,,2013-01-03 02:12:00,
2013-01-02 20:17:00,19.0,18.0,27.14,NW,305,11.0,12.0,93,0.00,,,-99.99,,2013-01-03 02:17:00,
2013-01-02 20:22:00,19.0,18.0,27.14,WNW,300,11.0,14.0,93,0.00,,,-99.99,,2013-01-03 02:22:00,
2013-01-02 20:27:00,19.0,18.0,27.15,WNW,300,11.0,12.0,93,0.00,,,-99.99,,2013-01-03 02:27:00,
2013-01-02 20:32:00,20.0,18.0,27.15,NW,307,10.0,12.0,93,0.00,,,-99.99,,2013-01-03 02:32:00,
2013-01-02 20:37:00,20.0,18.0,27.15,NW,306,10.0,11.0,93,0.00,,,-99.99,,2013-01-03 02:37:00,
2013-01-02 20:42:00,19.0,18.0,27.15,NW,307,10.0,11.0,93,0.00,,,-99.99,,2013-01-03 02:42:00,
2013-01-02 20:47:00,19.0,18.0,27.15,WNW,300,11.0,11.0,93,0.00,,,-99.99,,2013-01-03 02:47:00,
2013-01-02 20:52:00,19.0,18.0,27.15,NW,306,10.0,11.0,93,0.00,,,-99.99,,2013-01-03 02:52:00,
2013-01-02 20:57:00,19.0,18.0,27.15,NW,307,11.0,12.0,93,0.00,,,-99.99,,2013-01-03 02:57:00,
2013-01-02 21:02:00,19.0,18.0,27.15,NW,310,11.0,12.0,93,0.00,,,-99.99,,2013-01-03 03:02:00,
2013-01-02 21:07:00,19.0,18.0,27.15,NW,306,11.0,12.0,93,0.00,,,-99.99,,2013-01-03 03:07:00,
2013-01-02 21:12:00,18.0,16.0,27.15,NW,309,10.0,11.0,93,0.00,,,-99.99,,2013-01-03 03:12:00,
2013-01-02 21:17:00,18.0,16.0,27.15,NW,313,10.0,11.0,93,0.00,,,-99.99,,2013-01-03 03:17:00,
2013-01-02 21:22:00,18.0,16.0,27.16,NW,312,10.0,11.0,93,0.00,,,-99.99,,2013-01-03 03:22:00,
2013-01-02 21:27:00,18.0,16.0,27.16,NW,310,11.0,12.0,93,0.00,,,-99.99,,2013-01-03 03:27:00,
2013-01-02 21:37:00,18.0,16.0,27.16,NW,313,11.0,12.0,93,0.00,,,-99.99,,2013-01-03 03:37:00,
2013-01-02 21:47:00,17.0,16.0,27.17,NW,310,12.0,12.0,93,0.00,,,-99.99,,2013-01-03 03:47:00,
2013-01-02 21:52:00,17.0,16.0,27.17,NW,309,12.0,12.0,93,0.00,,,-99.99,,2013-01-03 03:52:00,
2013-01-02 21:57:00,17.0,16.0,27.17,NW,306,12.0,13.0,93,0.00,,,-99.99,,2013-01-03 03:57:00,
2013-01-02 22:02:00,17.0,16.0,27.18,NW,305,12.0,13.0,93,0.00,,,-99.99,,2013-01-03 04:02:00,
2013-01-02 22:07:00,18.0,16.0,27.18,NW,305,12.0,13.0,93,0.00,,,-99.99,,2013-01-03 04:07:00,
2013-01-02 22:12:00,18.0,16.0,27.18,WNW,300,11.0,13.0,93,0.00,,,-99.99,,2013-01-03 04:12:00,
2013-01-02 22:17:00,18.0,16.0,27.18,NW,307,12.0,13.0,94,0.00,,,-99.99,,2013-01-03 04:17:00,
2013-01-02 22:22:00,19.0,18.0,27.18,WNW,303,12.0,13.0,94,0.00,,,-99.99,,2013-01-03 04:22:00,
2013-01-02 22:27:00,19.0,18.0,27.18,NW,307,12.0,14.0,94,0.00,,,-99.99,,2013-01-03 04:27:00,
2013-01-02 22:32:00,20.0,19.0,27.19,NW,306,12.0,14.0,94,0.00,,,-99.99,,2013-01-03 04:32:00,
2013-01-02 22:37:00,20.0,19.0,27.19,NW,307,13.0,15.0,94,0.00,,,-99.99,,2013-01-03 04:37:00,
2013-01-02 22:42:00,21.0,19.0,27.19,NW,321,14.0,16.0,94,0.00,,,-99.99,,2013-01-03 04:42:00,
2013-01-02 22:47:00,21.0,19.0,27.19,NNW,331,14.0,16.0,94,0.00,,,-99.99,,2013-01-03 04:47:00,
2013-01-02 22:52:00,22.0,21.0,27.20,NW,324,15.0,18.0,94,0.00,,,-99.99,,2013-01-03 04:52:00,
2013-01-02 22:57:00,22.0,19.0,27.20,NNW,329,15.0,17.0,93,0.00,,,-99.99,,2013-01-03 04:57:00,
2013-01-02 23:07:00,22.0,19.0,27.20,NW,312,14.0,15.0,93,0.00,,,-99.99,,2013-01-03 05:07:00,
2013-01-02 23:12:00,22.0,19.0,27.21,NW,317,13.0,16.0,93,0.00,,,-99.99,,2013-01-03 05:12:00,
2013-01-02 23:17:00,22.0,19.0,27.21,NW,321,14.0,15.0,93,0.00,,,-99.99,,2013-01-03 05:17:00,
2013-01-02 23:22:00,22.0,19.0,27.21,NW,317,13.0,15.0,93,0.00,,,-99.99,,2013-01-03 05:22:00,
2013-01-02 23:27:00,22.0,19.0,27.20,NW,310,13.0,15.0,93,0.00,,,-99.99,,2013-01-03 05:27:00,
2013-01-02 23:32:00,21.0,19.0,27.21,NW,320,13.0,15.0,93,0.00,,,-99.99,,2013-01-03 05:32:00,
2013-01-02 23:37:00,21.0,19.0,27.21,NW,306,15.0,18.0,93,0.00,,,-99.99,,2013-01-03 05:37:00,
2013-01-02 23:42:00,21.0,19.0,27.21,NW,321,15.0,17.0,94,0.00,,,-99.99,,2013-01-03 05:42:00,
2013-01-02 23:47:00,22.0,21.0,27.21,NW,306,15.0,18.0,94,0.00,,,-99.99,,2013-01-03 05:47:00,
2013-01-02 23:52:00,22.0,21.0,27.22,NNW,327,15.0,17.0,94,0.00,,,-99.99,,2013-01-03 05:52:00,